sensor_id;sensor_type;location;lat;lon;timestamp;P1;durP1;ratioP1;P2;durP2;ratioP2
19735;SDS011;32064;49.310;8.646;2023-05-16T00:00:53;3.92;;;3.63;;
19735;SDS011;32064;49.310;8.646;2023-05-16T00:03:18;6.97;;;4.82;;
19735;SDS011;32064;49.310;8.646;2023-05-16T00:05:44;6.03;;;5.32;;
19735;SDS011;32064;49.310;8.646;2023-05-16T00:08:10;4.70;;;4.30;;
19735;SDS011;32064;49.310;8.646;2023-05-16T00:10:35;5.00;;;3.95;;
19735;SDS011;32064;49.310;8.646;2023-05-16T00:13:01;5.18;;;4.05;;
19735;SDS011;32064;49.310;8.646;2023-05-16T00:15:27;4.80;;;4.32;;
19735;SDS011;32064;49.310;8.646;2023-05-16T00:17:54;3.67;;;3.38;;
19735;SDS011;32064;49.310;8.646;2023-05-16T00:20:26;8.70;;;4.15;;
19735;SDS011;32064;49.310;8.646;2023-05-16T00:22:52;5.07;;;4.57;;
19735;SDS011;32064;49.310;8.646;2023-05-16T00:25:18;3.78;;;3.50;;
19735;SDS011;32064;49.310;8.646;2023-05-16T00:27:44;7.05;;;5.18;;
19735;SDS011;32064;49.310;8.646;2023-05-16T00:30:10;5.90;;;5.30;;
19735;SDS011;32064;49.310;8.646;2023-05-16T00:32:36;7.03;;;6.28;;
19735;SDS011;32064;49.310;8.646;2023-05-16T00:35:02;14.13;;;6.20;;
19735;SDS011;32064;49.310;8.646;2023-05-16T00:37:27;7.15;;;6.40;;
19735;SDS011;32064;49.310;8.646;2023-05-16T00:39:53;7.88;;;6.30;;
19735;SDS011;32064;49.310;8.646;2023-05-16T00:42:19;8.65;;;7.00;;
19735;SDS011;32064;49.310;8.646;2023-05-16T00:44:45;8.63;;;6.63;;
19735;SDS011;32064;49.310;8.646;2023-05-16T00:47:11;6.75;;;6.15;;
19735;SDS011;32064;49.310;8.646;2023-05-16T00:49:37;11.65;;;8.30;;
19735;SDS011;32064;49.310;8.646;2023-05-16T00:52:02;7.72;;;6.97;;
19735;SDS011;32064;49.310;8.646;2023-05-16T00:54:29;11.52;;;7.47;;
19735;SDS011;32064;49.310;8.646;2023-05-16T00:56:55;8.73;;;6.10;;
19735;SDS011;32064;49.310;8.646;2023-05-16T00:59:21;8.38;;;7.45;;
19735;SDS011;32064;49.310;8.646;2023-05-16T01:01:51;9.50;;;6.50;;
19735;SDS011;32064;49.310;8.646;2023-05-16T01:04:17;7.57;;;6.35;;
19735;SDS011;32064;49.310;8.646;2023-05-16T01:06:43;10.38;;;7.80;;
19735;SDS011;32064;49.310;8.646;2023-05-16T01:09:09;8.13;;;7.43;;
19735;SDS011;32064;49.310;8.646;2023-05-16T01:11:45;8.07;;;7.32;;
19735;SDS011;32064;49.310;8.646;2023-05-16T01:17:22;9.75;;;8.02;;
19735;SDS011;32064;49.310;8.646;2023-05-16T01:28:46;9.52;;;6.53;;
19735;SDS011;32064;49.310;8.646;2023-05-16T01:31:13;10.60;;;7.55;;
19735;SDS011;32064;49.310;8.646;2023-05-16T01:33:39;7.82;;;7.00;;
19735;SDS011;32064;49.310;8.646;2023-05-16T01:38:52;10.95;;;8.18;;
19735;SDS011;32064;49.310;8.646;2023-05-16T01:44:34;10.57;;;8.90;;
19735;SDS011;32064;49.310;8.646;2023-05-16T01:47:13;9.40;;;7.70;;
19735;SDS011;32064;49.310;8.646;2023-05-16T01:49:57;9.10;;;8.20;;
19735;SDS011;32064;49.310;8.646;2023-05-16T01:55:17;8.10;;;7.32;;
19735;SDS011;32064;49.310;8.646;2023-05-16T01:57:48;9.70;;;8.27;;
19735;SDS011;32064;49.310;8.646;2023-05-16T02:00:16;11.90;;;8.13;;
19735;SDS011;32064;49.310;8.646;2023-05-16T02:02:42;10.70;;;8.32;;
19735;SDS011;32064;49.310;8.646;2023-05-16T02:05:07;12.07;;;7.93;;
19735;SDS011;32064;49.310;8.646;2023-05-16T02:07:33;9.55;;;8.70;;
19735;SDS011;32064;49.310;8.646;2023-05-16T02:09:58;7.80;;;7.07;;
19735;SDS011;32064;49.310;8.646;2023-05-16T02:12:24;9.27;;;8.37;;
19735;SDS011;32064;49.310;8.646;2023-05-16T02:14:49;9.07;;;8.18;;
19735;SDS011;32064;49.310;8.646;2023-05-16T02:17:15;10.50;;;8.30;;
19735;SDS011;32064;49.310;8.646;2023-05-16T02:19:40;8.60;;;7.47;;
19735;SDS011;32064;49.310;8.646;2023-05-16T02:22:06;8.20;;;7.37;;
19735;SDS011;32064;49.310;8.646;2023-05-16T02:24:31;14.57;;;7.93;;
19735;SDS011;32064;49.310;8.646;2023-05-16T02:26:56;12.10;;;8.30;;
19735;SDS011;32064;49.310;8.646;2023-05-16T02:29:22;13.32;;;7.80;;
19735;SDS011;32064;49.310;8.646;2023-05-16T02:31:47;10.07;;;8.90;;
19735;SDS011;32064;49.310;8.646;2023-05-16T02:34:13;9.25;;;8.38;;
19735;SDS011;32064;49.310;8.646;2023-05-16T02:36:39;11.48;;;7.90;;
19735;SDS011;32064;49.310;8.646;2023-05-16T02:39:04;9.27;;;7.88;;
19735;SDS011;32064;49.310;8.646;2023-05-16T02:41:31;10.68;;;8.85;;
19735;SDS011;32064;49.310;8.646;2023-05-16T02:43:57;8.67;;;7.73;;
19735;SDS011;32064;49.310;8.646;2023-05-16T02:46:27;9.97;;;8.27;;
19735;SDS011;32064;49.310;8.646;2023-05-16T02:48:57;11.52;;;9.68;;
19735;SDS011;32064;49.310;8.646;2023-05-16T02:51:24;13.25;;;8.55;;
19735;SDS011;32064;49.310;8.646;2023-05-16T02:53:51;9.55;;;6.65;;
19735;SDS011;32064;49.310;8.646;2023-05-16T02:56:18;9.20;;;7.27;;
19735;SDS011;32064;49.310;8.646;2023-05-16T02:58:46;8.85;;;7.93;;
19735;SDS011;32064;49.310;8.646;2023-05-16T03:01:13;6.80;;;6.00;;
19735;SDS011;32064;49.310;8.646;2023-05-16T03:03:39;13.45;;;7.70;;
19735;SDS011;32064;49.310;8.646;2023-05-16T03:06:05;8.68;;;7.80;;
19735;SDS011;32064;49.310;8.646;2023-05-16T03:08:31;9.95;;;7.90;;
19735;SDS011;32064;49.310;8.646;2023-05-16T03:10:56;6.82;;;6.20;;
19735;SDS011;32064;49.310;8.646;2023-05-16T03:13:22;8.00;;;6.87;;
19735;SDS011;32064;49.310;8.646;2023-05-16T03:15:47;7.15;;;6.43;;
19735;SDS011;32064;49.310;8.646;2023-05-16T03:18:13;6.60;;;5.30;;
19735;SDS011;32064;49.310;8.646;2023-05-16T03:20:38;5.90;;;5.28;;
19735;SDS011;32064;49.310;8.646;2023-05-16T03:23:03;7.43;;;5.53;;
19735;SDS011;32064;49.310;8.646;2023-05-16T03:25:35;8.23;;;5.10;;
19735;SDS011;32064;49.310;8.646;2023-05-16T03:28:02;11.83;;;5.30;;
19735;SDS011;32064;49.310;8.646;2023-05-16T03:30:29;4.27;;;3.87;;
19735;SDS011;32064;49.310;8.646;2023-05-16T03:32:54;8.65;;;5.55;;
19735;SDS011;32064;49.310;8.646;2023-05-16T03:35:20;12.87;;;3.57;;
19735;SDS011;32064;49.310;8.646;2023-05-16T03:37:46;5.37;;;4.13;;
19735;SDS011;32064;49.310;8.646;2023-05-16T03:40:12;4.70;;;4.30;;
19735;SDS011;32064;49.310;8.646;2023-05-16T03:42:37;5.00;;;4.60;;
19735;SDS011;32064;49.310;8.646;2023-05-16T03:45:06;5.63;;;5.13;;
19735;SDS011;32064;49.310;8.646;2023-05-16T03:47:32;5.13;;;4.72;;
19735;SDS011;32064;49.310;8.646;2023-05-16T03:49:58;5.00;;;4.60;;
19735;SDS011;32064;49.310;8.646;2023-05-16T03:52:23;5.13;;;4.63;;
19735;SDS011;32064;49.310;8.646;2023-05-16T03:54:51;4.93;;;4.37;;
19735;SDS011;32064;49.310;8.646;2023-05-16T03:57:17;7.90;;;4.05;;
19735;SDS011;32064;49.310;8.646;2023-05-16T03:59:42;7.93;;;4.50;;
19735;SDS011;32064;49.310;8.646;2023-05-16T04:02:08;14.38;;;3.45;;
19735;SDS011;32064;49.310;8.646;2023-05-16T04:04:33;4.93;;;4.23;;
19735;SDS011;32064;49.310;8.646;2023-05-16T04:07:00;7.80;;;4.60;;
19735;SDS011;32064;49.310;8.646;2023-05-16T04:09:26;7.20;;;5.33;;
19735;SDS011;32064;49.310;8.646;2023-05-16T04:11:51;4.87;;;4.37;;
19735;SDS011;32064;49.310;8.646;2023-05-16T04:14:16;4.77;;;3.50;;
19735;SDS011;32064;49.310;8.646;2023-05-16T04:16:42;7.43;;;4.53;;
19735;SDS011;32064;49.310;8.646;2023-05-16T04:19:07;6.00;;;3.87;;
19735;SDS011;32064;49.310;8.646;2023-05-16T04:21:33;3.47;;;3.17;;
19735;SDS011;32064;49.310;8.646;2023-05-16T04:23:59;4.20;;;3.50;;
19735;SDS011;32064;49.310;8.646;2023-05-16T04:26:25;10.47;;;4.17;;
19735;SDS011;32064;49.310;8.646;2023-05-16T04:28:51;4.67;;;4.23;;
19735;SDS011;32064;49.310;8.646;2023-05-16T04:31:17;5.37;;;4.10;;
19735;SDS011;32064;49.310;8.646;2023-05-16T04:33:42;3.93;;;3.50;;
19735;SDS011;32064;49.310;8.646;2023-05-16T04:36:07;4.43;;;3.57;;
19735;SDS011;32064;49.310;8.646;2023-05-16T04:38:33;4.13;;;3.73;;
19735;SDS011;32064;49.310;8.646;2023-05-16T04:40:58;6.13;;;4.90;;
19735;SDS011;32064;49.310;8.646;2023-05-16T04:43:25;3.97;;;3.47;;
19735;SDS011;32064;49.310;8.646;2023-05-16T04:45:51;4.23;;;3.83;;
19735;SDS011;32064;49.310;8.646;2023-05-16T04:48:18;4.40;;;4.00;;
19735;SDS011;32064;49.310;8.646;2023-05-16T04:50:43;5.17;;;4.47;;
19735;SDS011;32064;49.310;8.646;2023-05-16T04:53:08;3.93;;;3.63;;
19735;SDS011;32064;49.310;8.646;2023-05-16T04:55:34;4.75;;;4.30;;
19735;SDS011;32064;49.310;8.646;2023-05-16T04:58:00;9.48;;;4.15;;
19735;SDS011;32064;49.310;8.646;2023-05-16T05:00:25;5.80;;;3.27;;
19735;SDS011;32064;49.310;8.646;2023-05-16T05:02:51;7.20;;;4.33;;
19735;SDS011;32064;49.310;8.646;2023-05-16T05:05:16;6.50;;;4.40;;
19735;SDS011;32064;49.310;8.646;2023-05-16T05:07:42;4.07;;;3.73;;
19735;SDS011;32064;49.310;8.646;2023-05-16T05:10:07;5.47;;;4.73;;
19735;SDS011;32064;49.310;8.646;2023-05-16T05:12:33;5.60;;;4.28;;
19735;SDS011;32064;49.310;8.646;2023-05-16T05:14:59;4.60;;;4.20;;
19735;SDS011;32064;49.310;8.646;2023-05-16T05:17:25;5.03;;;4.47;;
19735;SDS011;32064;49.310;8.646;2023-05-16T05:19:51;4.80;;;4.40;;
19735;SDS011;32064;49.310;8.646;2023-05-16T05:22:17;5.57;;;4.27;;
19735;SDS011;32064;49.310;8.646;2023-05-16T05:24:42;5.50;;;4.90;;
19735;SDS011;32064;49.310;8.646;2023-05-16T05:27:07;4.43;;;3.63;;
19735;SDS011;32064;49.310;8.646;2023-05-16T05:29:33;4.37;;;3.90;;
19735;SDS011;32064;49.310;8.646;2023-05-16T05:31:59;8.97;;;4.53;;
19735;SDS011;32064;49.310;8.646;2023-05-16T05:34:24;5.15;;;4.43;;
19735;SDS011;32064;49.310;8.646;2023-05-16T05:36:50;9.20;;;5.00;;
19735;SDS011;32064;49.310;8.646;2023-05-16T05:39:15;4.38;;;3.03;;
19735;SDS011;32064;49.310;8.646;2023-05-16T05:41:41;4.00;;;3.40;;
19735;SDS011;32064;49.310;8.646;2023-05-16T05:44:06;5.27;;;4.77;;
19735;SDS011;32064;49.310;8.646;2023-05-16T05:46:32;6.37;;;5.40;;
19735;SDS011;32064;49.310;8.646;2023-05-16T05:48:58;4.57;;;4.15;;
19735;SDS011;32064;49.310;8.646;2023-05-16T05:51:24;4.18;;;3.58;;
19735;SDS011;32064;49.310;8.646;2023-05-16T05:53:50;4.57;;;3.90;;
19735;SDS011;32064;49.310;8.646;2023-05-16T05:56:16;6.75;;;4.40;;
19735;SDS011;32064;49.310;8.646;2023-05-16T05:58:42;5.13;;;3.73;;
19735;SDS011;32064;49.310;8.646;2023-05-16T06:01:09;3.90;;;3.60;;
19735;SDS011;32064;49.310;8.646;2023-05-16T06:03:35;5.05;;;4.25;;
19735;SDS011;32064;49.310;8.646;2023-05-16T06:06:01;5.18;;;3.42;;
19735;SDS011;32064;49.310;8.646;2023-05-16T06:08:27;5.50;;;2.90;;
19735;SDS011;32064;49.310;8.646;2023-05-16T06:10:53;3.25;;;2.95;;
19735;SDS011;32064;49.310;8.646;2023-05-16T06:13:18;2.85;;;2.30;;
19735;SDS011;32064;49.310;8.646;2023-05-16T06:15:48;3.83;;;2.88;;
19735;SDS011;32064;49.310;8.646;2023-05-16T06:18:14;6.15;;;3.63;;
19735;SDS011;32064;49.310;8.646;2023-05-16T06:20:40;4.47;;;3.50;;
19735;SDS011;32064;49.310;8.646;2023-05-16T06:23:05;3.97;;;3.33;;
19735;SDS011;32064;49.310;8.646;2023-05-16T06:25:30;2.95;;;2.75;;
19735;SDS011;32064;49.310;8.646;2023-05-16T06:27:56;3.17;;;2.40;;
19735;SDS011;32064;49.310;8.646;2023-05-16T06:30:21;3.30;;;2.90;;
19735;SDS011;32064;49.310;8.646;2023-05-16T06:32:46;4.60;;;3.30;;
19735;SDS011;32064;49.310;8.646;2023-05-16T06:35:12;2.70;;;2.33;;
19735;SDS011;32064;49.310;8.646;2023-05-16T06:37:37;5.10;;;2.88;;
19735;SDS011;32064;49.310;8.646;2023-05-16T06:40:03;2.45;;;1.98;;
19735;SDS011;32064;49.310;8.646;2023-05-16T06:42:29;1.42;;;1.33;;
19735;SDS011;32064;49.310;8.646;2023-05-16T06:44:55;3.20;;;2.65;;
19735;SDS011;32064;49.310;8.646;2023-05-16T06:47:20;2.58;;;2.25;;
19735;SDS011;32064;49.310;8.646;2023-05-16T06:49:45;2.65;;;2.45;;
19735;SDS011;32064;49.310;8.646;2023-05-16T06:52:11;2.08;;;1.58;;
19735;SDS011;32064;49.310;8.646;2023-05-16T06:54:37;1.65;;;1.55;;
19735;SDS011;32064;49.310;8.646;2023-05-16T06:57:02;2.13;;;1.95;;
19735;SDS011;32064;49.310;8.646;2023-05-16T06:59:28;1.67;;;1.58;;
19735;SDS011;32064;49.310;8.646;2023-05-16T07:01:53;1.27;;;0.95;;
19735;SDS011;32064;49.310;8.646;2023-05-16T07:04:19;2.65;;;1.88;;
19735;SDS011;32064;49.310;8.646;2023-05-16T07:06:44;1.38;;;1.27;;
19735;SDS011;32064;49.310;8.646;2023-05-16T07:09:10;1.48;;;1.38;;
19735;SDS011;32064;49.310;8.646;2023-05-16T07:11:36;2.20;;;1.45;;
19735;SDS011;32064;49.310;8.646;2023-05-16T07:14:01;1.70;;;1.60;;
19735;SDS011;32064;49.310;8.646;2023-05-16T07:16:27;1.90;;;1.70;;
19735;SDS011;32064;49.310;8.646;2023-05-16T07:18:52;1.30;;;1.20;;
19735;SDS011;32064;49.310;8.646;2023-05-16T07:21:18;2.03;;;1.70;;
19735;SDS011;32064;49.310;8.646;2023-05-16T07:23:43;2.05;;;1.63;;
19735;SDS011;32064;49.310;8.646;2023-05-16T07:26:09;1.35;;;1.15;;
19735;SDS011;32064;49.310;8.646;2023-05-16T07:28:35;0.90;;;0.90;;
19735;SDS011;32064;49.310;8.646;2023-05-16T07:31:00;0.63;;;0.63;;
19735;SDS011;32064;49.310;8.646;2023-05-16T07:33:25;1.20;;;0.88;;
19735;SDS011;32064;49.310;8.646;2023-05-16T07:35:51;0.70;;;0.70;;
19735;SDS011;32064;49.310;8.646;2023-05-16T07:38:19;0.52;;;0.52;;
19735;SDS011;32064;49.310;8.646;2023-05-16T07:40:45;1.08;;;1.08;;
19735;SDS011;32064;49.310;8.646;2023-05-16T07:43:10;0.80;;;0.80;;
19735;SDS011;32064;49.310;8.646;2023-05-16T07:45:36;1.42;;;1.25;;
19735;SDS011;32064;49.310;8.646;2023-05-16T07:48:01;0.75;;;0.75;;
19735;SDS011;32064;49.310;8.646;2023-05-16T07:50:27;0.80;;;0.80;;
19735;SDS011;32064;49.310;8.646;2023-05-16T07:52:52;0.80;;;0.65;;
19735;SDS011;32064;49.310;8.646;2023-05-16T07:55:17;0.80;;;0.75;;
19735;SDS011;32064;49.310;8.646;2023-05-16T07:57:43;0.77;;;0.60;;
19735;SDS011;32064;49.310;8.646;2023-05-16T08:00:09;1.92;;;0.80;;
19735;SDS011;32064;49.310;8.646;2023-05-16T08:02:34;1.83;;;0.90;;
19735;SDS011;32064;49.310;8.646;2023-05-16T08:05:00;0.40;;;0.40;;
19735;SDS011;32064;49.310;8.646;2023-05-16T08:07:25;0.95;;;0.85;;
19735;SDS011;32064;49.310;8.646;2023-05-16T08:09:52;0.40;;;0.40;;
19735;SDS011;32064;49.310;8.646;2023-05-16T08:12:17;0.30;;;0.30;;
19735;SDS011;32064;49.310;8.646;2023-05-16T08:14:43;0.60;;;0.60;;
19735;SDS011;32064;49.310;8.646;2023-05-16T08:17:08;0.55;;;0.55;;
19735;SDS011;32064;49.310;8.646;2023-05-16T08:19:34;0.73;;;0.73;;
19735;SDS011;32064;49.310;8.646;2023-05-16T08:22:00;2.28;;;0.80;;
19735;SDS011;32064;49.310;8.646;2023-05-16T08:24:25;0.40;;;0.40;;
19735;SDS011;32064;49.310;8.646;2023-05-16T08:26:51;0.60;;;0.60;;
19735;SDS011;32064;49.310;8.646;2023-05-16T08:29:16;0.57;;;0.57;;
19735;SDS011;32064;49.310;8.646;2023-05-16T08:31:42;0.30;;;0.30;;
19735;SDS011;32064;49.310;8.646;2023-05-16T08:34:07;0.40;;;0.40;;
19735;SDS011;32064;49.310;8.646;2023-05-16T08:36:34;0.60;;;0.43;;
19735;SDS011;32064;49.310;8.646;2023-05-16T08:39:00;0.70;;;0.70;;
19735;SDS011;32064;49.310;8.646;2023-05-16T08:41:26;0.45;;;0.38;;
19735;SDS011;32064;49.310;8.646;2023-05-16T08:43:51;0.35;;;0.35;;
19735;SDS011;32064;49.310;8.646;2023-05-16T08:46:17;0.40;;;0.40;;
19735;SDS011;32064;49.310;8.646;2023-05-16T08:48:46;0.20;;;0.20;;
19735;SDS011;32064;49.310;8.646;2023-05-16T08:51:18;0.30;;;0.30;;
19735;SDS011;32064;49.310;8.646;2023-05-16T08:53:49;0.40;;;0.40;;
19735;SDS011;32064;49.310;8.646;2023-05-16T08:56:18;0.30;;;0.30;;
19735;SDS011;32064;49.310;8.646;2023-05-16T08:58:46;0.40;;;0.40;;
19735;SDS011;32064;49.310;8.646;2023-05-16T09:01:13;0.40;;;0.40;;
19735;SDS011;32064;49.310;8.646;2023-05-16T09:03:39;0.25;;;0.25;;
19735;SDS011;32064;49.310;8.646;2023-05-16T09:06:05;0.22;;;0.22;;
19735;SDS011;32064;49.310;8.646;2023-05-16T09:08:31;0.35;;;0.32;;
19735;SDS011;32064;49.310;8.646;2023-05-16T09:10:57;0.30;;;0.30;;
19735;SDS011;32064;49.310;8.646;2023-05-16T09:13:23;0.32;;;0.32;;
19735;SDS011;32064;49.310;8.646;2023-05-16T09:18:37;0.63;;;0.50;;
19735;SDS011;32064;49.310;8.646;2023-05-16T09:21:04;0.20;;;0.20;;
19735;SDS011;32064;49.310;8.646;2023-05-16T09:23:31;0.22;;;0.22;;
19735;SDS011;32064;49.310;8.646;2023-05-16T09:25:57;0.30;;;0.30;;
19735;SDS011;32064;49.310;8.646;2023-05-16T09:28:24;0.30;;;0.30;;
19735;SDS011;32064;49.310;8.646;2023-05-16T09:30:50;0.38;;;0.38;;
19735;SDS011;32064;49.310;8.646;2023-05-16T09:33:16;0.30;;;0.30;;
19735;SDS011;32064;49.310;8.646;2023-05-16T09:35:42;0.40;;;0.40;;
19735;SDS011;32064;49.310;8.646;2023-05-16T09:38:12;0.32;;;0.30;;
19735;SDS011;32064;49.310;8.646;2023-05-16T09:40:41;0.30;;;0.30;;
19735;SDS011;32064;49.310;8.646;2023-05-16T09:43:07;0.20;;;0.20;;
19735;SDS011;32064;49.310;8.646;2023-05-16T09:45:35;0.40;;;0.40;;
19735;SDS011;32064;49.310;8.646;2023-05-16T09:48:04;0.55;;;0.35;;
19735;SDS011;32064;49.310;8.646;2023-05-16T09:50:35;0.50;;;0.50;;
19735;SDS011;32064;49.310;8.646;2023-05-16T09:53:01;0.77;;;0.40;;
19735;SDS011;32064;49.310;8.646;2023-05-16T09:55:27;0.50;;;0.50;;
19735;SDS011;32064;49.310;8.646;2023-05-16T09:57:53;0.28;;;0.28;;
19735;SDS011;32064;49.310;8.646;2023-05-16T10:00:19;0.47;;;0.40;;
19735;SDS011;32064;49.310;8.646;2023-05-16T10:02:45;0.20;;;0.20;;
19735;SDS011;32064;49.310;8.646;2023-05-16T10:05:11;0.40;;;0.40;;
19735;SDS011;32064;49.310;8.646;2023-05-16T10:07:37;0.20;;;0.20;;
19735;SDS011;32064;49.310;8.646;2023-05-16T10:10:07;0.20;;;0.20;;
19735;SDS011;32064;49.310;8.646;2023-05-16T10:12:33;0.22;;;0.22;;
19735;SDS011;32064;49.310;8.646;2023-05-16T10:15:01;0.35;;;0.35;;
19735;SDS011;32064;49.310;8.646;2023-05-16T10:17:28;0.47;;;0.35;;
19735;SDS011;32064;49.310;8.646;2023-05-16T10:19:56;0.20;;;0.20;;
19735;SDS011;32064;49.310;8.646;2023-05-16T10:22:24;0.20;;;0.20;;
19735;SDS011;32064;49.310;8.646;2023-05-16T10:24:53;0.20;;;0.20;;
19735;SDS011;32064;49.310;8.646;2023-05-16T10:27:24;0.30;;;0.30;;
19735;SDS011;32064;49.310;8.646;2023-05-16T10:29:50;0.50;;;0.50;;
19735;SDS011;32064;49.310;8.646;2023-05-16T10:32:17;0.32;;;0.32;;
19735;SDS011;32064;49.310;8.646;2023-05-16T10:34:43;0.20;;;0.20;;
19735;SDS011;32064;49.310;8.646;2023-05-16T10:37:10;0.45;;;0.45;;
19735;SDS011;32064;49.310;8.646;2023-05-16T10:39:36;0.30;;;0.30;;
19735;SDS011;32064;49.310;8.646;2023-05-16T10:42:04;0.50;;;0.35;;
19735;SDS011;32064;49.310;8.646;2023-05-16T10:44:31;1.30;;;0.65;;
19735;SDS011;32064;49.310;8.646;2023-05-16T10:46:58;8.55;;;0.40;;
19735;SDS011;32064;49.310;8.646;2023-05-16T10:49:26;0.30;;;0.30;;
19735;SDS011;32064;49.310;8.646;2023-05-16T10:52:05;0.20;;;0.20;;
19735;SDS011;32064;49.310;8.646;2023-05-16T10:54:33;0.20;;;0.20;;
19735;SDS011;32064;49.310;8.646;2023-05-16T10:57:04;0.45;;;0.40;;
19735;SDS011;32064;49.310;8.646;2023-05-16T10:59:38;0.55;;;0.55;;
19735;SDS011;32064;49.310;8.646;2023-05-16T11:04:54;0.30;;;0.30;;
19735;SDS011;32064;49.310;8.646;2023-05-16T11:07:22;0.30;;;0.30;;
19735;SDS011;32064;49.310;8.646;2023-05-16T11:12:49;0.85;;;0.85;;
19735;SDS011;32064;49.310;8.646;2023-05-16T11:15:20;0.28;;;0.28;;
19735;SDS011;32064;49.310;8.646;2023-05-16T11:17:48;0.50;;;0.50;;
19735;SDS011;32064;49.310;8.646;2023-05-16T11:20:24;0.30;;;0.30;;
19735;SDS011;32064;49.310;8.646;2023-05-16T11:22:51;0.50;;;0.40;;
19735;SDS011;32064;49.310;8.646;2023-05-16T11:25:41;0.28;;;0.28;;
19735;SDS011;32064;49.310;8.646;2023-05-16T11:28:07;0.50;;;0.43;;
19735;SDS011;32064;49.310;8.646;2023-05-16T11:30:34;0.43;;;0.43;;
19735;SDS011;32064;49.310;8.646;2023-05-16T11:33:00;0.40;;;0.40;;
19735;SDS011;32064;49.310;8.646;2023-05-16T11:35:26;0.30;;;0.30;;
19735;SDS011;32064;49.310;8.646;2023-05-16T11:37:52;0.32;;;0.32;;
19735;SDS011;32064;49.310;8.646;2023-05-16T11:40:18;0.40;;;0.40;;
19735;SDS011;32064;49.310;8.646;2023-05-16T11:42:44;0.52;;;0.52;;
19735;SDS011;32064;49.310;8.646;2023-05-16T11:47:37;0.55;;;0.40;;
19735;SDS011;32064;49.310;8.646;2023-05-16T11:50:10;1.38;;;0.52;;
19735;SDS011;32064;49.310;8.646;2023-05-16T11:52:37;0.47;;;0.38;;
19735;SDS011;32064;49.310;8.646;2023-05-16T11:55:04;4.65;;;0.55;;
19735;SDS011;32064;49.310;8.646;2023-05-16T11:57:31;0.32;;;0.32;;
19735;SDS011;32064;49.310;8.646;2023-05-16T12:00:03;20.33;;;0.70;;
19735;SDS011;32064;49.310;8.646;2023-05-16T12:02:35;1.23;;;0.50;;
19735;SDS011;32064;49.310;8.646;2023-05-16T12:05:05;0.50;;;0.50;;
19735;SDS011;32064;49.310;8.646;2023-05-16T12:07:33;0.57;;;0.35;;
19735;SDS011;32064;49.310;8.646;2023-05-16T12:10:03;0.30;;;0.30;;
19735;SDS011;32064;49.310;8.646;2023-05-16T12:12:29;0.63;;;0.43;;
19735;SDS011;32064;49.310;8.646;2023-05-16T12:14:55;0.45;;;0.45;;
19735;SDS011;32064;49.310;8.646;2023-05-16T12:17:20;0.40;;;0.40;;
19735;SDS011;32064;49.310;8.646;2023-05-16T12:19:46;0.40;;;0.40;;
19735;SDS011;32064;49.310;8.646;2023-05-16T12:22:18;0.50;;;0.50;;
19735;SDS011;32064;49.310;8.646;2023-05-16T12:24:44;0.30;;;0.30;;
19735;SDS011;32064;49.310;8.646;2023-05-16T12:27:10;1.05;;;0.75;;
19735;SDS011;32064;49.310;8.646;2023-05-16T12:29:36;0.50;;;0.50;;
19735;SDS011;32064;49.310;8.646;2023-05-16T12:32:02;0.75;;;0.65;;
19735;SDS011;32064;49.310;8.646;2023-05-16T12:34:28;0.70;;;0.68;;
19735;SDS011;32064;49.310;8.646;2023-05-16T12:36:54;0.43;;;0.35;;
19735;SDS011;32064;49.310;8.646;2023-05-16T12:39:20;0.63;;;0.60;;
19735;SDS011;32064;49.310;8.646;2023-05-16T12:41:47;0.50;;;0.50;;
19735;SDS011;32064;49.310;8.646;2023-05-16T12:44:13;0.85;;;0.57;;
19735;SDS011;32064;49.310;8.646;2023-05-16T12:46:48;1.05;;;0.70;;
19735;SDS011;32064;49.310;8.646;2023-05-16T12:49:18;0.90;;;0.85;;
19735;SDS011;32064;49.310;8.646;2023-05-16T12:51:51;0.43;;;0.43;;
19735;SDS011;32064;49.310;8.646;2023-05-16T12:54:18;1.00;;;0.90;;
19735;SDS011;32064;49.310;8.646;2023-05-16T12:56:44;0.55;;;0.50;;
19735;SDS011;32064;49.310;8.646;2023-05-16T12:59:10;1.88;;;0.93;;
19735;SDS011;32064;49.310;8.646;2023-05-16T13:01:38;7.03;;;0.43;;
19735;SDS011;32064;49.310;8.646;2023-05-16T13:04:05;0.40;;;0.40;;
19735;SDS011;32064;49.310;8.646;2023-05-16T13:06:30;1.20;;;0.80;;
19735;SDS011;32064;49.310;8.646;2023-05-16T13:08:56;3.30;;;0.95;;
19735;SDS011;32064;49.310;8.646;2023-05-16T13:11:22;0.88;;;0.70;;
19735;SDS011;32064;49.310;8.646;2023-05-16T13:13:48;1.88;;;0.70;;
19735;SDS011;32064;49.310;8.646;2023-05-16T13:16:13;0.73;;;0.45;;
19735;SDS011;32064;49.310;8.646;2023-05-16T13:18:39;1.00;;;0.80;;
19735;SDS011;32064;49.310;8.646;2023-05-16T13:21:04;3.92;;;1.00;;
19735;SDS011;32064;49.310;8.646;2023-05-16T13:23:30;0.30;;;0.30;;
19735;SDS011;32064;49.310;8.646;2023-05-16T13:25:56;0.88;;;0.52;;
19735;SDS011;32064;49.310;8.646;2023-05-16T13:28:23;4.13;;;0.52;;
19735;SDS011;32064;49.310;8.646;2023-05-16T13:30:49;0.45;;;0.40;;
19735;SDS011;32064;49.310;8.646;2023-05-16T13:33:15;0.70;;;0.70;;
19735;SDS011;32064;49.310;8.646;2023-05-16T13:35:41;0.90;;;0.70;;
19735;SDS011;32064;49.310;8.646;2023-05-16T13:38:07;0.75;;;0.75;;
19735;SDS011;32064;49.310;8.646;2023-05-16T13:40:32;1.98;;;0.93;;
19735;SDS011;32064;49.310;8.646;2023-05-16T13:42:58;0.98;;;0.93;;
19735;SDS011;32064;49.310;8.646;2023-05-16T13:45:25;0.40;;;0.40;;
19735;SDS011;32064;49.310;8.646;2023-05-16T13:47:51;1.48;;;0.90;;
19735;SDS011;32064;49.310;8.646;2023-05-16T13:50:17;0.75;;;0.70;;
19735;SDS011;32064;49.310;8.646;2023-05-16T13:52:42;1.33;;;0.98;;
19735;SDS011;32064;49.310;8.646;2023-05-16T13:55:08;2.22;;;1.10;;
19735;SDS011;32064;49.310;8.646;2023-05-16T13:57:34;0.65;;;0.65;;
19735;SDS011;32064;49.310;8.646;2023-05-16T13:59:59;1.13;;;0.75;;
19735;SDS011;32064;49.310;8.646;2023-05-16T14:02:25;1.15;;;0.60;;
19735;SDS011;32064;49.310;8.646;2023-05-16T14:04:51;0.50;;;0.50;;
19735;SDS011;32064;49.310;8.646;2023-05-16T14:07:17;3.20;;;1.15;;
19735;SDS011;32064;49.310;8.646;2023-05-16T14:09:42;3.42;;;1.05;;
19735;SDS011;32064;49.310;8.646;2023-05-16T14:12:09;5.82;;;0.70;;
19735;SDS011;32064;49.310;8.646;2023-05-16T14:14:34;1.27;;;0.60;;
19735;SDS011;32064;49.310;8.646;2023-05-16T14:17:00;0.65;;;0.55;;
19735;SDS011;32064;49.310;8.646;2023-05-16T14:19:26;0.68;;;0.68;;
19735;SDS011;32064;49.310;8.646;2023-05-16T14:21:51;5.68;;;1.35;;
19735;SDS011;32064;49.310;8.646;2023-05-16T14:24:16;1.45;;;0.93;;
19735;SDS011;32064;49.310;8.646;2023-05-16T14:26:42;0.70;;;0.70;;
19735;SDS011;32064;49.310;8.646;2023-05-16T14:29:07;0.88;;;0.68;;
19735;SDS011;32064;49.310;8.646;2023-05-16T14:31:33;0.60;;;0.60;;
19735;SDS011;32064;49.310;8.646;2023-05-16T14:34:00;1.38;;;0.93;;
19735;SDS011;32064;49.310;8.646;2023-05-16T14:36:26;0.40;;;0.40;;
19735;SDS011;32064;49.310;8.646;2023-05-16T14:38:51;0.75;;;0.63;;
19735;SDS011;32064;49.310;8.646;2023-05-16T14:41:17;0.50;;;0.40;;
19735;SDS011;32064;49.310;8.646;2023-05-16T14:43:43;0.80;;;0.73;;
19735;SDS011;32064;49.310;8.646;2023-05-16T14:46:09;1.20;;;0.77;;
19735;SDS011;32064;49.310;8.646;2023-05-16T14:48:35;0.80;;;0.70;;
19735;SDS011;32064;49.310;8.646;2023-05-16T14:51:00;1.17;;;0.60;;
19735;SDS011;32064;49.310;8.646;2023-05-16T14:53:25;1.58;;;0.52;;
19735;SDS011;32064;49.310;8.646;2023-05-16T14:55:51;5.05;;;0.90;;
19735;SDS011;32064;49.310;8.646;2023-05-16T14:58:16;0.32;;;0.32;;
19735;SDS011;32064;49.310;8.646;2023-05-16T15:00:42;2.15;;;0.80;;
19735;SDS011;32064;49.310;8.646;2023-05-16T15:03:07;0.40;;;0.40;;
19735;SDS011;32064;49.310;8.646;2023-05-16T15:05:33;0.75;;;0.47;;
19735;SDS011;32064;49.310;8.646;2023-05-16T15:07:58;0.45;;;0.45;;
19735;SDS011;32064;49.310;8.646;2023-05-16T15:10:24;1.17;;;0.85;;
19735;SDS011;32064;49.310;8.646;2023-05-16T15:12:49;0.73;;;0.60;;
19735;SDS011;32064;49.310;8.646;2023-05-16T15:15:15;2.35;;;0.95;;